sensor_id;sensor_type;location;lat;lon;timestamp;P1;durP1;ratioP1;P2;durP2;ratioP2
42030;SDS011;27709;52.036;5.906;2023-07-16T00:01:34;4.50;;;1.77;;
42030;SDS011;27709;52.036;5.906;2023-07-16T00:04:02;6.28;;;1.80;;
42030;SDS011;27709;52.036;5.906;2023-07-16T00:06:35;4.88;;;1.65;;
42030;SDS011;27709;52.036;5.906;2023-07-16T00:09:00;3.92;;;1.70;;
42030;SDS011;27709;52.036;5.906;2023-07-16T00:11:26;4.80;;;1.90;;
42030;SDS011;27709;52.036;5.906;2023-07-16T00:13:51;5.53;;;1.45;;
42030;SDS011;27709;52.036;5.906;2023-07-16T00:16:20;7.55;;;1.90;;
42030;SDS011;27709;52.036;5.906;2023-07-16T00:18:48;6.05;;;2.05;;
42030;SDS011;27709;52.036;5.906;2023-07-16T00:21:14;5.85;;;1.85;;
42030;SDS011;27709;52.036;5.906;2023-07-16T00:23:40;4.80;;;1.63;;
42030;SDS011;27709;52.036;5.906;2023-07-16T00:26:06;6.95;;;1.95;;
42030;SDS011;27709;52.036;5.906;2023-07-16T00:28:32;6.10;;;2.00;;
42030;SDS011;27709;52.036;5.906;2023-07-16T00:30:58;4.22;;;1.50;;
42030;SDS011;27709;52.036;5.906;2023-07-16T00:33:24;5.97;;;2.05;;
42030;SDS011;27709;52.036;5.906;2023-07-16T00:35:50;5.90;;;2.17;;
42030;SDS011;27709;52.036;5.906;2023-07-16T00:38:19;5.63;;;1.75;;
42030;SDS011;27709;52.036;5.906;2023-07-16T00:40:45;6.88;;;1.85;;
42030;SDS011;27709;52.036;5.906;2023-07-16T00:43:12;4.97;;;1.40;;
42030;SDS011;27709;52.036;5.906;2023-07-16T00:45:39;4.25;;;1.60;;
42030;SDS011;27709;52.036;5.906;2023-07-16T00:48:05;5.50;;;1.77;;
42030;SDS011;27709;52.036;5.906;2023-07-16T00:50:32;4.75;;;1.90;;
42030;SDS011;27709;52.036;5.906;2023-07-16T00:53:00;3.63;;;1.60;;
42030;SDS011;27709;52.036;5.906;2023-07-16T00:55:26;6.18;;;1.85;;
42030;SDS011;27709;52.036;5.906;2023-07-16T00:57:54;6.32;;;1.92;;
42030;SDS011;27709;52.036;5.906;2023-07-16T01:00:30;5.38;;;1.95;;
42030;SDS011;27709;52.036;5.906;2023-07-16T01:02:56;5.53;;;1.95;;
42030;SDS011;27709;52.036;5.906;2023-07-16T01:05:31;6.35;;;2.20;;
42030;SDS011;27709;52.036;5.906;2023-07-16T01:08:04;5.95;;;2.33;;
42030;SDS011;27709;52.036;5.906;2023-07-16T01:10:34;5.97;;;2.15;;
42030;SDS011;27709;52.036;5.906;2023-07-16T01:13:00;5.70;;;2.00;;
42030;SDS011;27709;52.036;5.906;2023-07-16T01:15:26;6.70;;;2.75;;
42030;SDS011;27709;52.036;5.906;2023-07-16T01:17:51;5.95;;;2.50;;
42030;SDS011;27709;52.036;5.906;2023-07-16T01:20:23;5.30;;;2.33;;
42030;SDS011;27709;52.036;5.906;2023-07-16T01:28:38;8.10;;;2.40;;
42030;SDS011;27709;52.036;5.906;2023-07-16T01:31:10;6.10;;;2.30;;
42030;SDS011;27709;52.036;5.906;2023-07-16T01:33:36;6.55;;;2.03;;
42030;SDS011;27709;52.036;5.906;2023-07-16T01:36:06;7.15;;;2.20;;
42030;SDS011;27709;52.036;5.906;2023-07-16T01:38:39;7.90;;;2.42;;
42030;SDS011;27709;52.036;5.906;2023-07-16T01:41:07;7.97;;;2.47;;
42030;SDS011;27709;52.036;5.906;2023-07-16T01:43:51;7.43;;;1.88;;
42030;SDS011;27709;52.036;5.906;2023-07-16T01:46:21;7.55;;;2.30;;
42030;SDS011;27709;52.036;5.906;2023-07-16T01:48:50;7.88;;;1.90;;
42030;SDS011;27709;52.036;5.906;2023-07-16T01:51:16;6.28;;;1.95;;
42030;SDS011;27709;52.036;5.906;2023-07-16T01:53:41;7.47;;;1.95;;
42030;SDS011;27709;52.036;5.906;2023-07-16T01:56:08;7.38;;;2.25;;
42030;SDS011;27709;52.036;5.906;2023-07-16T01:58:41;7.70;;;2.10;;
42030;SDS011;27709;52.036;5.906;2023-07-16T02:01:06;6.43;;;2.42;;
42030;SDS011;27709;52.036;5.906;2023-07-16T02:03:32;7.38;;;2.20;;
42030;SDS011;27709;52.036;5.906;2023-07-16T02:06:01;8.55;;;2.38;;
42030;SDS011;27709;52.036;5.906;2023-07-16T02:08:27;7.20;;;2.28;;
42030;SDS011;27709;52.036;5.906;2023-07-16T02:10:52;6.38;;;2.42;;
42030;SDS011;27709;52.036;5.906;2023-07-16T02:13:18;8.05;;;2.40;;
42030;SDS011;27709;52.036;5.906;2023-07-16T02:15:46;6.60;;;2.28;;
42030;SDS011;27709;52.036;5.906;2023-07-16T02:18:14;7.55;;;2.25;;
42030;SDS011;27709;52.036;5.906;2023-07-16T02:20:39;6.72;;;2.60;;
42030;SDS011;27709;52.036;5.906;2023-07-16T02:23:05;5.85;;;2.20;;
42030;SDS011;27709;52.036;5.906;2023-07-16T02:25:31;4.70;;;1.80;;
42030;SDS011;27709;52.036;5.906;2023-07-16T02:27:57;6.18;;;2.05;;
42030;SDS011;27709;52.036;5.906;2023-07-16T02:30:23;6.38;;;2.40;;
42030;SDS011;27709;52.036;5.906;2023-07-16T02:32:48;6.35;;;2.22;;
42030;SDS011;27709;52.036;5.906;2023-07-16T02:35:13;5.80;;;2.22;;
42030;SDS011;27709;52.036;5.906;2023-07-16T02:37:40;8.13;;;2.47;;
42030;SDS011;27709;52.036;5.906;2023-07-16T02:40:07;7.15;;;2.30;;
42030;SDS011;27709;52.036;5.906;2023-07-16T02:42:36;5.90;;;2.10;;
42030;SDS011;27709;52.036;5.906;2023-07-16T02:45:01;8.38;;;2.60;;
42030;SDS011;27709;52.036;5.906;2023-07-16T02:47:28;8.27;;;2.40;;
42030;SDS011;27709;52.036;5.906;2023-07-16T02:49:59;5.38;;;2.47;;
42030;SDS011;27709;52.036;5.906;2023-07-16T02:52:25;7.05;;;2.40;;
42030;SDS011;27709;52.036;5.906;2023-07-16T02:54:55;5.45;;;2.10;;
42030;SDS011;27709;52.036;5.906;2023-07-16T02:57:22;8.50;;;2.53;;
42030;SDS011;27709;52.036;5.906;2023-07-16T02:59:47;6.10;;;2.22;;
42030;SDS011;27709;52.036;5.906;2023-07-16T03:02:13;7.07;;;2.42;;
42030;SDS011;27709;52.036;5.906;2023-07-16T03:04:38;7.88;;;2.80;;
42030;SDS011;27709;52.036;5.906;2023-07-16T03:07:04;5.90;;;2.28;;
42030;SDS011;27709;52.036;5.906;2023-07-16T03:09:30;4.45;;;1.90;;
42030;SDS011;27709;52.036;5.906;2023-07-16T03:12:01;7.40;;;2.42;;
42030;SDS011;27709;52.036;5.906;2023-07-16T03:14:29;5.50;;;2.25;;
42030;SDS011;27709;52.036;5.906;2023-07-16T03:17:02;7.28;;;2.25;;
42030;SDS011;27709;52.036;5.906;2023-07-16T03:19:28;8.13;;;2.28;;
42030;SDS011;27709;52.036;5.906;2023-07-16T03:21:54;6.88;;;1.98;;
42030;SDS011;27709;52.036;5.906;2023-07-16T03:24:22;4.97;;;2.00;;
42030;SDS011;27709;52.036;5.906;2023-07-16T03:26:53;7.35;;;2.20;;
42030;SDS011;27709;52.036;5.906;2023-07-16T03:29:19;5.13;;;2.10;;
42030;SDS011;27709;52.036;5.906;2023-07-16T03:31:45;6.10;;;2.20;;
42030;SDS011;27709;52.036;5.906;2023-07-16T03:34:21;5.50;;;2.20;;
42030;SDS011;27709;52.036;5.906;2023-07-16T03:36:52;7.43;;;2.60;;
42030;SDS011;27709;52.036;5.906;2023-07-16T03:39:17;8.32;;;2.60;;
42030;SDS011;27709;52.036;5.906;2023-07-16T03:41:43;8.50;;;2.42;;
42030;SDS011;27709;52.036;5.906;2023-07-16T03:44:09;6.38;;;2.58;;
42030;SDS011;27709;52.036;5.906;2023-07-16T03:46:34;8.50;;;3.00;;
42030;SDS011;27709;52.036;5.906;2023-07-16T03:49:01;7.60;;;2.97;;
42030;SDS011;27709;52.036;5.906;2023-07-16T03:51:37;7.57;;;3.20;;
42030;SDS011;27709;52.036;5.906;2023-07-16T03:54:02;8.32;;;2.42;;
42030;SDS011;27709;52.036;5.906;2023-07-16T03:56:28;7.70;;;2.63;;
42030;SDS011;27709;52.036;5.906;2023-07-16T03:58:55;11.07;;;3.20;;
42030;SDS011;27709;52.036;5.906;2023-07-16T04:01:20;8.50;;;2.63;;
42030;SDS011;27709;52.036;5.906;2023-07-16T04:03:46;8.30;;;3.08;;
42030;SDS011;27709;52.036;5.906;2023-07-16T04:06:11;7.82;;;2.88;;
42030;SDS011;27709;52.036;5.906;2023-07-16T04:08:38;9.02;;;3.03;;
42030;SDS011;27709;52.036;5.906;2023-07-16T04:11:04;5.90;;;3.13;;
42030;SDS011;27709;52.036;5.906;2023-07-16T04:13:30;7.50;;;3.50;;
42030;SDS011;27709;52.036;5.906;2023-07-16T04:15:56;7.07;;;3.22;;
42030;SDS011;27709;52.036;5.906;2023-07-16T04:18:27;7.68;;;3.30;;
42030;SDS011;27709;52.036;5.906;2023-07-16T04:20:52;6.60;;;3.03;;
42030;SDS011;27709;52.036;5.906;2023-07-16T04:23:18;9.65;;;3.15;;
42030;SDS011;27709;52.036;5.906;2023-07-16T04:25:46;6.70;;;2.83;;
42030;SDS011;27709;52.036;5.906;2023-07-16T04:28:12;8.82;;;2.92;;
42030;SDS011;27709;52.036;5.906;2023-07-16T04:30:39;9.32;;;3.05;;
42030;SDS011;27709;52.036;5.906;2023-07-16T04:33:06;7.00;;;2.78;;
42030;SDS011;27709;52.036;5.906;2023-07-16T04:35:34;5.80;;;2.67;;
42030;SDS011;27709;52.036;5.906;2023-07-16T04:37:59;10.35;;;2.95;;
42030;SDS011;27709;52.036;5.906;2023-07-16T04:40:25;7.70;;;2.40;;
42030;SDS011;27709;52.036;5.906;2023-07-16T04:42:52;10.48;;;3.15;;
42030;SDS011;27709;52.036;5.906;2023-07-16T04:45:18;8.52;;;3.08;;
42030;SDS011;27709;52.036;5.906;2023-07-16T04:47:46;6.32;;;2.83;;
42030;SDS011;27709;52.036;5.906;2023-07-16T04:50:12;8.50;;;3.17;;
42030;SDS011;27709;52.036;5.906;2023-07-16T04:52:37;7.95;;;3.33;;
42030;SDS011;27709;52.036;5.906;2023-07-16T04:55:03;7.97;;;3.25;;
42030;SDS011;27709;52.036;5.906;2023-07-16T04:57:32;9.32;;;3.42;;
42030;SDS011;27709;52.036;5.906;2023-07-16T04:59:58;7.95;;;3.42;;
42030;SDS011;27709;52.036;5.906;2023-07-16T05:02:24;7.80;;;3.63;;
42030;SDS011;27709;52.036;5.906;2023-07-16T05:04:50;8.30;;;3.47;;
42030;SDS011;27709;52.036;5.906;2023-07-16T05:07:19;6.43;;;3.15;;
42030;SDS011;27709;52.036;5.906;2023-07-16T05:09:45;8.25;;;3.40;;
42030;SDS011;27709;52.036;5.906;2023-07-16T05:12:11;8.90;;;3.20;;
42030;SDS011;27709;52.036;5.906;2023-07-16T05:14:43;8.23;;;3.20;;
42030;SDS011;27709;52.036;5.906;2023-07-16T05:17:10;11.38;;;3.58;;
42030;SDS011;27709;52.036;5.906;2023-07-16T05:19:36;7.28;;;3.45;;
42030;SDS011;27709;52.036;5.906;2023-07-16T05:22:02;9.55;;;3.80;;
42030;SDS011;27709;52.036;5.906;2023-07-16T05:24:27;9.38;;;3.85;;
42030;SDS011;27709;52.036;5.906;2023-07-16T05:26:53;13.07;;;3.95;;
42030;SDS011;27709;52.036;5.906;2023-07-16T05:29:19;10.75;;;3.70;;
42030;SDS011;27709;52.036;5.906;2023-07-16T05:31:45;8.13;;;3.40;;
42030;SDS011;27709;52.036;5.906;2023-07-16T05:34:14;8.35;;;3.65;;
42030;SDS011;27709;52.036;5.906;2023-07-16T05:36:41;11.18;;;4.43;;
42030;SDS011;27709;52.036;5.906;2023-07-16T05:39:09;10.65;;;4.63;;
42030;SDS011;27709;52.036;5.906;2023-07-16T05:41:37;9.63;;;3.70;;
42030;SDS011;27709;52.036;5.906;2023-07-16T05:44:03;9.18;;;3.75;;
42030;SDS011;27709;52.036;5.906;2023-07-16T05:46:29;10.43;;;4.53;;
42030;SDS011;27709;52.036;5.906;2023-07-16T05:48:54;8.30;;;3.85;;
42030;SDS011;27709;52.036;5.906;2023-07-16T05:51:23;11.40;;;4.15;;
42030;SDS011;27709;52.036;5.906;2023-07-16T05:53:51;9.52;;;3.78;;
42030;SDS011;27709;52.036;5.906;2023-07-16T05:56:22;8.98;;;4.22;;
42030;SDS011;27709;52.036;5.906;2023-07-16T05:58:49;11.52;;;4.13;;
42030;SDS011;27709;52.036;5.906;2023-07-16T06:01:18;9.18;;;3.97;;
42030;SDS011;27709;52.036;5.906;2023-07-16T06:03:43;9.52;;;4.55;;
42030;SDS011;27709;52.036;5.906;2023-07-16T06:06:12;11.20;;;4.30;;
42030;SDS011;27709;52.036;5.906;2023-07-16T06:08:37;10.98;;;4.53;;
42030;SDS011;27709;52.036;5.906;2023-07-16T06:11:05;9.45;;;4.30;;
42030;SDS011;27709;52.036;5.906;2023-07-16T06:13:31;7.45;;;3.90;;
42030;SDS011;27709;52.036;5.906;2023-07-16T06:15:56;10.45;;;4.63;;
42030;SDS011;27709;52.036;5.906;2023-07-16T06:18:22;8.23;;;3.30;;
42030;SDS011;27709;52.036;5.906;2023-07-16T06:20:49;9.55;;;3.70;;
42030;SDS011;27709;52.036;5.906;2023-07-16T06:23:16;9.07;;;3.97;;
42030;SDS011;27709;52.036;5.906;2023-07-16T06:25:42;9.23;;;4.32;;
42030;SDS011;27709;52.036;5.906;2023-07-16T06:28:14;7.95;;;3.45;;
42030;SDS011;27709;52.036;5.906;2023-07-16T06:30:40;7.70;;;3.33;;
42030;SDS011;27709;52.036;5.906;2023-07-16T06:33:05;5.97;;;2.70;;
42030;SDS011;27709;52.036;5.906;2023-07-16T06:35:33;8.07;;;3.38;;
42030;SDS011;27709;52.036;5.906;2023-07-16T06:37:58;8.30;;;3.58;;
42030;SDS011;27709;52.036;5.906;2023-07-16T06:40:24;8.75;;;3.60;;
42030;SDS011;27709;52.036;5.906;2023-07-16T06:42:50;8.70;;;3.05;;
42030;SDS011;27709;52.036;5.906;2023-07-16T06:45:20;9.15;;;3.60;;
42030;SDS011;27709;52.036;5.906;2023-07-16T06:47:45;9.93;;;4.35;;
42030;SDS011;27709;52.036;5.906;2023-07-16T06:50:11;7.15;;;3.97;;
42030;SDS011;27709;52.036;5.906;2023-07-16T06:52:42;7.93;;;3.30;;
42030;SDS011;27709;52.036;5.906;2023-07-16T06:55:11;6.25;;;3.30;;
42030;SDS011;27709;52.036;5.906;2023-07-16T06:57:38;6.80;;;3.70;;
42030;SDS011;27709;52.036;5.906;2023-07-16T07:00:05;6.78;;;3.60;;
42030;SDS011;27709;52.036;5.906;2023-07-16T07:02:36;8.32;;;3.63;;
42030;SDS011;27709;52.036;5.906;2023-07-16T07:05:04;6.80;;;3.28;;
42030;SDS011;27709;52.036;5.906;2023-07-16T07:07:32;5.90;;;3.00;;
42030;SDS011;27709;52.036;5.906;2023-07-16T07:10:00;8.50;;;3.75;;
42030;SDS011;27709;52.036;5.906;2023-07-16T07:12:32;6.38;;;3.20;;
42030;SDS011;27709;52.036;5.906;2023-07-16T07:15:15;7.85;;;3.55;;
42030;SDS011;27709;52.036;5.906;2023-07-16T07:17:41;8.13;;;3.70;;
42030;SDS011;27709;52.036;5.906;2023-07-16T07:20:07;9.38;;;3.78;;
42030;SDS011;27709;52.036;5.906;2023-07-16T07:22:40;5.45;;;3.03;;
42030;SDS011;27709;52.036;5.906;2023-07-16T07:25:06;5.03;;;2.80;;
42030;SDS011;27709;52.036;5.906;2023-07-16T07:27:33;7.35;;;3.35;;
42030;SDS011;27709;52.036;5.906;2023-07-16T07:29:58;7.88;;;3.65;;
42030;SDS011;27709;52.036;5.906;2023-07-16T07:32:25;7.80;;;3.55;;
42030;SDS011;27709;52.036;5.906;2023-07-16T07:34:51;8.23;;;3.65;;
42030;SDS011;27709;52.036;5.906;2023-07-16T07:37:17;6.38;;;2.92;;
42030;SDS011;27709;52.036;5.906;2023-07-16T07:39:49;8.93;;;3.50;;
42030;SDS011;27709;52.036;5.906;2023-07-16T07:42:18;7.57;;;4.20;;
42030;SDS011;27709;52.036;5.906;2023-07-16T07:44:44;6.95;;;3.45;;
42030;SDS011;27709;52.036;5.906;2023-07-16T07:47:09;7.43;;;3.55;;
42030;SDS011;27709;52.036;5.906;2023-07-16T07:49:35;9.32;;;4.15;;
42030;SDS011;27709;52.036;5.906;2023-07-16T07:52:04;7.55;;;4.03;;
42030;SDS011;27709;52.036;5.906;2023-07-16T07:54:31;7.95;;;3.70;;
42030;SDS011;27709;52.036;5.906;2023-07-16T07:57:07;10.32;;;4.63;;
42030;SDS011;27709;52.036;5.906;2023-07-16T07:59:32;8.23;;;3.70;;
42030;SDS011;27709;52.036;5.906;2023-07-16T08:02:01;9.68;;;4.18;;
42030;SDS011;27709;52.036;5.906;2023-07-16T08:04:27;7.40;;;3.40;;
42030;SDS011;27709;52.036;5.906;2023-07-16T08:06:53;9.35;;;4.32;;
42030;SDS011;27709;52.036;5.906;2023-07-16T08:09:21;7.10;;;3.67;;
42030;SDS011;27709;52.036;5.906;2023-07-16T08:11:57;8.10;;;3.65;;
42030;SDS011;27709;52.036;5.906;2023-07-16T08:14:22;8.57;;;4.05;;
42030;SDS011;27709;52.036;5.906;2023-07-16T08:16:50;5.85;;;3.55;;
42030;SDS011;27709;52.036;5.906;2023-07-16T08:19:23;6.47;;;3.45;;
42030;SDS011;27709;52.036;5.906;2023-07-16T08:21:48;7.15;;;3.40;;
42030;SDS011;27709;52.036;5.906;2023-07-16T08:24:14;8.27;;;4.15;;
42030;SDS011;27709;52.036;5.906;2023-07-16T08:26:42;7.72;;;3.80;;
42030;SDS011;27709;52.036;5.906;2023-07-16T08:29:08;7.47;;;4.20;;
42030;SDS011;27709;52.036;5.906;2023-07-16T08:31:35;9.90;;;4.38;;
42030;SDS011;27709;52.036;5.906;2023-07-16T08:34:02;6.10;;;3.75;;
42030;SDS011;27709;52.036;5.906;2023-07-16T08:36:27;9.57;;;4.47;;
42030;SDS011;27709;52.036;5.906;2023-07-16T08:38:53;7.28;;;4.55;;
42030;SDS011;27709;52.036;5.906;2023-07-16T08:41:18;7.82;;;4.65;;
42030;SDS011;27709;52.036;5.906;2023-07-16T08:43:47;9.15;;;5.07;;
42030;SDS011;27709;52.036;5.906;2023-07-16T08:46:15;6.22;;;3.40;;
42030;SDS011;27709;52.036;5.906;2023-07-16T08:48:40;9.02;;;4.18;;
42030;SDS011;27709;52.036;5.906;2023-07-16T08:51:06;10.52;;;4.53;;
42030;SDS011;27709;52.036;5.906;2023-07-16T08:53:34;8.43;;;4.03;;
42030;SDS011;27709;52.036;5.906;2023-07-16T08:56:00;8.48;;;4.10;;
42030;SDS011;27709;52.036;5.906;2023-07-16T08:58:27;7.03;;;4.32;;
42030;SDS011;27709;52.036;5.906;2023-07-16T09:03:26;12.55;;;5.30;;
42030;SDS011;27709;52.036;5.906;2023-07-16T09:05:53;9.20;;;4.00;;
42030;SDS011;27709;52.036;5.906;2023-07-16T09:08:20;7.43;;;4.13;;
42030;SDS011;27709;52.036;5.906;2023-07-16T09:10:53;7.72;;;4.13;;
42030;SDS011;27709;52.036;5.906;2023-07-16T09:13:26;8.23;;;5.32;;
42030;SDS011;27709;52.036;5.906;2023-07-16T09:15:54;10.73;;;4.30;;
42030;SDS011;27709;52.036;5.906;2023-07-16T09:18:30;6.53;;;3.97;;
42030;SDS011;27709;52.036;5.906;2023-07-16T09:20:56;11.18;;;4.63;;
42030;SDS011;27709;52.036;5.906;2023-07-16T09:23:26;7.53;;;3.95;;
42030;SDS011;27709;52.036;5.906;2023-07-16T09:25:55;6.18;;;4.20;;
42030;SDS011;27709;52.036;5.906;2023-07-16T09:28:24;8.13;;;4.28;;
42030;SDS011;27709;52.036;5.906;2023-07-16T09:30:54;7.93;;;3.65;;
42030;SDS011;27709;52.036;5.906;2023-07-16T09:33:26;8.25;;;4.10;;
42030;SDS011;27709;52.036;5.906;2023-07-16T09:35:58;6.55;;;3.78;;
42030;SDS011;27709;52.036;5.906;2023-07-16T09:38:30;7.57;;;4.10;;
42030;SDS011;27709;52.036;5.906;2023-07-16T09:40:56;9.82;;;4.88;;
42030;SDS011;27709;52.036;5.906;2023-07-16T09:43:26;9.50;;;4.28;;
42030;SDS011;27709;52.036;5.906;2023-07-16T09:45:55;7.05;;;4.03;;
42030;SDS011;27709;52.036;5.906;2023-07-16T09:48:21;8.73;;;4.65;;
42030;SDS011;27709;52.036;5.906;2023-07-16T09:50:50;8.30;;;4.25;;
42030;SDS011;27709;52.036;5.906;2023-07-16T09:53:18;7.53;;;4.18;;
42030;SDS011;27709;52.036;5.906;2023-07-16T09:55:46;8.65;;;4.43;;
42030;SDS011;27709;52.036;5.906;2023-07-16T09:58:12;9.07;;;4.55;;
42030;SDS011;27709;52.036;5.906;2023-07-16T10:00:44;11.15;;;6.40;;
42030;SDS011;27709;52.036;5.906;2023-07-16T10:03:12;7.97;;;3.95;;
42030;SDS011;27709;52.036;5.906;2023-07-16T10:05:37;8.55;;;3.42;;
42030;SDS011;27709;52.036;5.906;2023-07-16T10:08:03;7.57;;;4.32;;
42030;SDS011;27709;52.036;5.906;2023-07-16T10:10:40;7.63;;;4.32;;
42030;SDS011;27709;52.036;5.906;2023-07-16T10:13:10;7.90;;;3.80;;
42030;SDS011;27709;52.036;5.906;2023-07-16T10:15:37;7.47;;;3.72;;
42030;SDS011;27709;52.036;5.906;2023-07-16T10:18:03;7.90;;;3.88;;
42030;SDS011;27709;52.036;5.906;2023-07-16T10:20:33;8.73;;;3.97;;
42030;SDS011;27709;52.036;5.906;2023-07-16T10:23:13;6.65;;;3.40;;
42030;SDS011;27709;52.036;5.906;2023-07-16T10:25:40;6.75;;;3.78;;
42030;SDS011;27709;52.036;5.906;2023-07-16T10:28:23;7.80;;;3.53;;
42030;SDS011;27709;52.036;5.906;2023-07-16T10:30:49;6.95;;;3.67;;
42030;SDS011;27709;52.036;5.906;2023-07-16T10:33:15;7.72;;;3.63;;
42030;SDS011;27709;52.036;5.906;2023-07-16T10:35:52;5.70;;;3.28;;
42030;SDS011;27709;52.036;5.906;2023-07-16T10:38:19;9.10;;;4.22;;
42030;SDS011;27709;52.036;5.906;2023-07-16T10:40:46;7.47;;;3.60;;
42030;SDS011;27709;52.036;5.906;2023-07-16T10:43:12;7.13;;;3.53;;
42030;SDS011;27709;52.036;5.906;2023-07-16T10:45:37;7.93;;;3.85;;
42030;SDS011;27709;52.036;5.906;2023-07-16T10:48:04;8.55;;;3.83;;
42030;SDS011;27709;52.036;5.906;2023-07-16T10:50:33;6.45;;;3.60;;
42030;SDS011;27709;52.036;5.906;2023-07-16T10:53:00;9.45;;;3.50;;
42030;SDS011;27709;52.036;5.906;2023-07-16T10:55:27;7.80;;;3.10;;
42030;SDS011;27709;52.036;5.906;2023-07-16T10:57:53;6.97;;;3.15;;
42030;SDS011;27709;52.036;5.906;2023-07-16T11:00:20;13.10;;;4.22;;
42030;SDS011;27709;52.036;5.906;2023-07-16T11:02:47;6.22;;;3.13;;
42030;SDS011;27709;52.036;5.906;2023-07-16T11:05:16;7.93;;;3.55;;
42030;SDS011;27709;52.036;5.906;2023-07-16T11:07:51;7.22;;;3.13;;
42030;SDS011;27709;52.036;5.906;2023-07-16T11:10:16;7.53;;;3.33;;
42030;SDS011;27709;52.036;5.906;2023-07-16T11:12:42;5.88;;;3.17;;
42030;SDS011;27709;52.036;5.906;2023-07-16T11:15:08;7.60;;;3.80;;
42030;SDS011;27709;52.036;5.906;2023-07-16T11:17:36;8.30;;;3.90;;
42030;SDS011;27709;52.036;5.906;2023-07-16T11:20:03;8.85;;;4.13;;
42030;SDS011;27709;52.036;5.906;2023-07-16T11:22:31;7.05;;;3.65;;
42030;SDS011;27709;52.036;5.906;2023-07-16T11:24:59;7.07;;;3.70;;
42030;SDS011;27709;52.036;5.906;2023-07-16T11:27:26;5.82;;;3.33;;
42030;SDS011;27709;52.036;5.906;2023-07-16T11:29:53;8.35;;;3.70;;
42030;SDS011;27709;52.036;5.906;2023-07-16T11:34:56;7.50;;;3.38;;
42030;SDS011;27709;52.036;5.906;2023-07-16T11:37:27;6.78;;;3.28;;
42030;SDS011;27709;52.036;5.906;2023-07-16T11:40:01;7.75;;;3.13;;
42030;SDS011;27709;52.036;5.906;2023-07-16T11:42:31;7.60;;;3.33;;
42030;SDS011;27709;52.036;5.906;2023-07-16T11:44:58;6.75;;;3.70;;
42030;SDS011;27709;52.036;5.906;2023-07-16T11:47:25;7.13;;;3.40;;
42030;SDS011;27709;52.036;5.906;2023-07-16T11:49:51;5.13;;;3.25;;
42030;SDS011;27709;52.036;5.906;2023-07-16T11:52:20;7.53;;;3.33;;
42030;SDS011;27709;52.036;5.906;2023-07-16T11:54:48;8.93;;;3.65;;
42030;SDS011;27709;52.036;5.906;2023-07-16T11:57:14;9.43;;;4.63;;
42030;SDS011;27709;52.036;5.906;2023-07-16T11:59:39;7.07;;;3.67;;
42030;SDS011;27709;52.036;5.906;2023-07-16T12:02:05;8.63;;;4.00;;
42030;SDS011;27709;52.036;5.906;2023-07-16T12:04:31;5.93;;;3.13;;
42030;SDS011;27709;52.036;5.906;2023-07-16T12:06:57;6.07;;;3.50;;
42030;SDS011;27709;52.036;5.906;2023-07-16T12:09:23;5.60;;;3.20;;
42030;SDS011;27709;52.036;5.906;2023-07-16T12:11:48;7.13;;;3.22;;
42030;SDS011;27709;52.036;5.906;2023-07-16T12:14:14;6.13;;;3.25;;
42030;SDS011;27709;52.036;5.906;2023-07-16T12:16:41;6.88;;;3.10;;
42030;SDS011;27709;52.036;5.906;2023-07-16T12:19:18;9.25;;;3.55;;
42030;SDS011;27709;52.036;5.906;2023-07-16T12:21:44;7.57;;;3.42;;
42030;SDS011;27709;52.036;5.906;2023-07-16T12:24:10;6.57;;;3.20;;
42030;SDS011;27709;52.036;5.906;2023-07-16T12:26:36;6.50;;;3.20;;
42030;SDS011;27709;52.036;5.906;2023-07-16T12:29:02;7.43;;;3.60;;
42030;SDS011;27709;52.036;5.906;2023-07-16T12:31:31;6.00;;;3.50;;
42030;SDS011;27709;52.036;5.906;2023-07-16T12:33:58;9.73;;;4.30;;
42030;SDS011;27709;52.036;5.906;2023-07-16T12:36:24;5.88;;;3.20;;
42030;SDS011;27709;52.036;5.906;2023-07-16T12:38:50;5.35;;;3.17;;
42030;SDS011;27709;52.036;5.906;2023-07-16T12:41:15;7.18;;;3.80;;
42030;SDS011;27709;52.036;5.906;2023-07-16T12:43:44;6.00;;;2.97;;
42030;SDS011;27709;52.036;5.906;2023-07-16T12:46:09;6.35;;;3.38;;
42030;SDS011;27709;52.036;5.906;2023-07-16T12:48:35;7.15;;;3.53;;
42030;SDS011;27709;52.036;5.906;2023-07-16T12:51:00;8.68;;;4.15;;
42030;SDS011;27709;52.036;5.906;2023-07-16T12:53:26;6.38;;;3.30;;
42030;SDS011;27709;52.036;5.906;2023-07-16T12:55:52;6.30;;;3.22;;
42030;SDS011;27709;52.036;5.906;2023-07-16T12:58:18;9.32;;;2.80;;
42030;SDS011;27709;52.036;5.906;2023-07-16T13:00:44;6.05;;;3.00;;
42030;SDS011;27709;52.036;5.906;2023-07-16T13:03:09;6.32;;;3.15;;
42030;SDS011;27709;52.036;5.906;2023-07-16T13:05:39;4.72;;;2.47;;
42030;SDS011;27709;52.036;5.906;2023-07-16T13:08:05;4.80;;;2.78;;
42030;SDS011;27709;52.036;5.906;2023-07-16T13:10:31;4.28;;;2.50;;
42030;SDS011;27709;52.036;5.906;2023-07-16T13:12:57;6.43;;;3.00;;
42030;SDS011;27709;52.036;5.906;2023-07-16T13:15:27;5.13;;;2.65;;
42030;SDS011;27709;52.036;5.906;2023-07-16T13:17:53;5.78;;;3.15;;
42030;SDS011;27709;52.036;5.906;2023-07-16T13:20:21;6.03;;;3.15;;
42030;SDS011;27709;52.036;5.906;2023-07-16T13:22:47;6.00;;;2.92;;
42030;SDS011;27709;52.036;5.906;2023-07-16T13:25:13;5.30;;;3.00;;
42030;SDS011;27709;52.036;5.906;2023-07-16T13:27:41;7.15;;;3.58;;
42030;SDS011;27709;52.036;5.906;2023-07-16T13:30:07;6.18;;;3.20;;
42030;SDS011;27709;52.036;5.906;2023-07-16T13:32:34;5.90;;;3.60;;
42030;SDS011;27709;52.036;5.906;2023-07-16T13:34:59;4.30;;;3.00;;
42030;SDS011;27709;52.036;5.906;2023-07-16T13:37:25;8.65;;;3.58;;
42030;SDS011;27709;52.036;5.906;2023-07-16T13:39:52;5.72;;;3.22;;
42030;SDS011;27709;52.036;5.906;2023-07-16T13:42:17;4.63;;;2.67;;
42030;SDS011;27709;52.036;5.906;2023-07-16T13:44:43;5.43;;;2.60;;
42030;SDS011;27709;52.036;5.906;2023-07-16T13:47:08;5.90;;;2.83;;
42030;SDS011;27709;52.036;5.906;2023-07-16T13:49:34;6.85;;;3.10;;
42030;SDS011;27709;52.036;5.906;2023-07-16T13:52:03;5.82;;;3.08;;
42030;SDS011;27709;52.036;5.906;2023-07-16T13:54:29;6.43;;;2.85;;
42030;SDS011;27709;52.036;5.906;2023-07-16T13:56:57;5.03;;;2.47;;
42030;SDS011;27709;52.036;5.906;2023-07-16T13:59:22;5.60;;;2.92;;
42030;SDS011;27709;52.036;5.906;2023-07-16T14:01:58;5.85;;;2.85;;
42030;SDS011;27709;52.036;5.906;2023-07-16T14:04:29;4.75;;;2.28;;
42030;SDS011;27709;52.036;5.906;2023-07-16T14:06:54;5.47;;;2.72;;
42030;SDS011;27709;52.036;5.906;2023-07-16T14:09:23;5.03;;;2.55;;
42030;SDS011;27709;52.036;5.906;2023-07-16T14:11:49;4.80;;;2.30;;
42030;SDS011;27709;52.036;5.906;2023-07-16T14:14:14;6.45;;;2.47;;
42030;SDS011;27709;52.036;5.906;2023-07-16T14:16:40;4.47;;;2.35;;
42030;SDS011;27709;52.036;5.906;2023-07-16T14:19:06;5.93;;;2.38;;
42030;SDS011;27709;52.036;5.906;2023-07-16T14:21:32;4.82;;;2.33;;
42030;SDS011;27709;52.036;5.906;2023-07-16T14:23:57;5.65;;;2.20;;
42030;SDS011;27709;52.036;5.906;2023-07-16T14:26:23;4.57;;;1.90;;
42030;SDS011;27709;52.036;5.906;2023-07-16T14:28:48;5.70;;;2.13;;
42030;SDS011;27709;52.036;5.906;2023-07-16T14:31:14;3.97;;;1.88;;
42030;SDS011;27709;52.036;5.906;2023-07-16T14:33:41;5.35;;;1.63;;
42030;SDS011;27709;52.036;5.906;2023-07-16T14:36:07;4.32;;;1.80;;
42030;SDS011;27709;52.036;5.906;2023-07-16T14:38:35;5.70;;;1.85;;
42030;SDS011;27709;52.036;5.906;2023-07-16T14:41:01;4.63;;;1.83;;
42030;SDS011;27709;52.036;5.906;2023-07-16T14:43:26;4.35;;;1.65;;
42030;SDS011;27709;52.036;5.906;2023-07-16T14:45:52;2.30;;;1.27;;
42030;SDS011;27709;52.036;5.906;2023-07-16T14:48:17;3.05;;;1.50;;
42030;SDS011;27709;52.036;5.906;2023-07-16T14:50:43;3.20;;;1.50;;
42030;SDS011;27709;52.036;5.906;2023-07-16T14:53:08;3.85;;;1.40;;
42030;SDS011;27709;52.036;5.906;2023-07-16T14:55:35;3.47;;;1.48;;
42030;SDS011;27709;52.036;5.906;2023-07-16T14:58:01;4.07;;;1.65;;
42030;SDS011;27709;52.036;5.906;2023-07-16T15:00:27;5.55;;;1.67;;